27.2°F
Current conditions from King Hill
Updated every 5 minutes
 
  Wednesday November 26, 2014

Station Historical Data
Daily Summary for May 21, 2011 Units:  Both    English   Metric
« Previous Day
Next Day »
Daily Weekly Monthly Yearly Custom
  High: Low: Average:
Temperature: 73.1 °F /  22.8 °C 55.5 °F /  13.1 °C 61.9 °F /  16.6 °C
Dew Point: 65.0 °F /  18.3 °C 54.7 °F /  12.6 °C 59 °F /  15 °C
Humidity: 98% 72% 91%
Wind Speed: 6.0mph /  9.7km/h - 1.9mph /  3.1km/h
Wind Gust: 12.0mph /  19.3km/h - -
Wind- - SSW
Pressure: 29.97 in /  1014.8 hPa 29.88 in /  1011.7 hPa -
Precipitation: 0.01 in /  0.3 mm    
Historical Graphs
 
 
Tabular Data for May 21, 2011
Time Temperature Dew Point Pressure Wind Wind Speed Wind Gust Humidity Daily Rainfall
00:00 57.7 °F /  14.3 °C 56.9 °F /  13.8 °C 29.91in /  1012.8hPa Calm   5.0mph /  8km/h 97% 0.80in /  20.3mm
00:05 57.7 °F /  14.3 °C 56.9 °F /  13.8 °C 29.91in /  1012.8hPa Calm   2.0mph /  3.2km/h 97% 0.00in /  0mm
00:10 57.5 °F /  14.2 °C 56.7 °F /  13.7 °C 29.90in /  1012.4hPa Calm   1.0mph /  1.6km/h 97% 0.00in /  0mm
00:15 57.4 °F /  14.1 °C 56.3 °F /  13.5 °C 29.90in /  1012.4hPa Calm   2.0mph /  3.2km/h 96% 0.00in /  0mm
00:20 57.3 °F /  14.1 °C 56.5 °F /  13.6 °C 29.90in /  1012.4hPa Calm   2.0mph /  3.2km/h 97% 0.00in /  0mm
00:25 57.1 °F /  13.9 °C 56.3 °F /  13.5 °C 29.90in /  1012.4hPa Calm     97% 0.00in /  0mm
00:30 57.0 °F /  13.9 °C 56.2 °F /  13.4 °C 29.89in /  1012.1hPa Calm     97% 0.00in /  0mm
00:40 56.8 °F /  13.8 °C 56.0 °F /  13.3 °C 29.89in /  1012.1hPa Calm     97% 0.00in /  0mm
00:45 56.7 °F /  13.7 °C 55.9 °F /  13.3 °C 29.89in /  1012.1hPa Calm     97% 0.00in /  0mm
00:50 56.6 °F /  13.7 °C 55.5 °F /  13.1 °C 29.88in /  1011.7hPa Calm     96% 0.00in /  0mm
00:55 56.4 °F /  13.6 °C 55.6 °F /  13.1 °C 29.88in /  1011.7hPa Calm     97% 0.00in /  0mm
01:00 56.2 °F /  13.4 °C 55.4 °F /  13 °C 29.88in /  1011.7hPa NNE 1.0mph /  1.6km/h 2.0mph /  3.2km/h 97% 0.00in /  0mm
01:05 56.1 °F /  13.4 °C 55.0 °F /  12.8 °C 29.89in /  1012.1hPa Calm   2.0mph /  3.2km/h 96% 0.00in /  0mm
01:10 56.5 °F /  13.6 °C 55.7 °F /  13.2 °C 29.89in /  1012.1hPa NNE 1.0mph /  1.6km/h 2.0mph /  3.2km/h 97% 0.00in /  0mm
01:15 56.5 °F /  13.6 °C 55.7 °F /  13.2 °C 29.89in /  1012.1hPa Calm   2.0mph /  3.2km/h 97% 0.00in /  0mm
01:20 56.4 °F /  13.6 °C 55.6 °F /  13.1 °C 29.89in /  1012.1hPa Calm   1.0mph /  1.6km/h 97% 0.00in /  0mm
01:25 56.4 °F /  13.6 °C 55.6 °F /  13.1 °C 29.89in /  1012.1hPa Calm   2.0mph /  3.2km/h 97% 0.00in /  0mm
01:30 56.5 °F /  13.6 °C 55.7 °F /  13.2 °C 29.89in /  1012.1hPa Calm   2.0mph /  3.2km/h 97% 0.00in /  0mm
01:35 56.4 °F /  13.6 °C 55.6 °F /  13.1 °C 29.89in /  1012.1hPa Calm     97% 0.00in /  0mm
01:40 56.3 °F /  13.5 °C 55.5 °F /  13.1 °C 29.89in /  1012.1hPa Calm     97% 0.00in /  0mm
01:50 56.4 °F /  13.6 °C 55.6 °F /  13.1 °C 29.89in /  1012.1hPa Calm     97% 0.00in /  0mm
01:55 56.5 °F /  13.6 °C 55.7 °F /  13.2 °C 29.90in /  1012.4hPa Calm   2.0mph /  3.2km/h 97% 0.00in /  0mm
02:00 56.7 °F /  13.7 °C 55.9 °F /  13.3 °C 29.90in /  1012.4hPa Calm   2.0mph /  3.2km/h 97% 0.00in /  0mm
02:05 57.1 °F /  13.9 °C 56.3 °F /  13.5 °C 29.90in /  1012.4hPa Calm   2.0mph /  3.2km/h 97% 0.00in /  0mm
02:10 57.2 °F /  14 °C 56.4 °F /  13.6 °C 29.89in /  1012.1hPa East 3.0mph /  4.8km/h 5.0mph /  8km/h 97% 0.00in /  0mm
02:15 57.2 °F /  14 °C 56.4 °F /  13.6 °C 29.89in /  1012.1hPa Calm   5.0mph /  8km/h 97% 0.00in /  0mm
02:20 57.1 °F /  13.9 °C 56.3 °F /  13.5 °C 29.89in /  1012.1hPa Calm   5.0mph /  8km/h 97% 0.00in /  0mm
02:25 57.0 °F /  13.9 °C 56.2 °F /  13.4 °C 29.89in /  1012.1hPa Calm   3.0mph /  4.8km/h 97% 0.00in /  0mm
02:30 56.9 °F /  13.8 °C 56.1 °F /  13.4 °C 29.89in /  1012.1hPa Calm     97% 0.00in /  0mm
02:35 56.7 °F /  13.7 °C 55.9 °F /  13.3 °C 29.89in /  1012.1hPa Calm     97% 0.00in /  0mm
02:40 56.7 °F /  13.7 °C 55.9 °F /  13.3 °C 29.89in /  1012.1hPa Calm     97% 0.00in /  0mm
02:45 56.6 °F /  13.7 °C 55.8 °F /  13.2 °C 29.89in /  1012.1hPa Calm     97% 0.00in /  0mm
02:50 56.6 °F /  13.7 °C 55.8 °F /  13.2 °C 29.89in /  1012.1hPa Calm     97% 0.00in /  0mm
02:55 56.6 °F /  13.7 °C 55.8 °F /  13.2 °C 29.89in /  1012.1hPa Calm     97% 0.00in /  0mm
03:00 56.5 °F /  13.6 °C 55.7 °F /  13.2 °C 29.89in /  1012.1hPa Calm     97% 0.00in /  0mm
03:05 56.4 °F /  13.6 °C 55.6 °F /  13.1 °C 29.89in /  1012.1hPa Calm     97% 0.00in /  0mm
03:10 56.3 °F /  13.5 °C 55.5 °F /  13.1 °C 29.89in /  1012.1hPa Calm     97% 0.00in /  0mm
03:15 56.2 °F /  13.4 °C 55.4 °F /  13 °C 29.89in /  1012.1hPa Calm     97% 0.00in /  0mm
03:20 56.2 °F /  13.4 °C 55.4 °F /  13 °C 29.89in /  1012.1hPa Calm     97% 0.00in /  0mm
03:25 56.1 °F /  13.4 °C 55.3 °F /  12.9 °C 29.89in /  1012.1hPa Calm     97% 0.00in /  0mm
03:30 56.0 °F /  13.3 °C 55.2 °F /  12.9 °C 29.89in /  1012.1hPa Calm     97% 0.00in /  0mm
03:40 56.0 °F /  13.3 °C 55.2 °F /  12.9 °C 29.88in /  1011.7hPa Calm     97% 0.00in /  0mm
03:45 56.2 °F /  13.4 °C 55.4 °F /  13 °C 29.88in /  1011.7hPa Calm     97% 0.00in /  0mm
03:50 56.2 °F /  13.4 °C 55.4 °F /  13 °C 29.88in /  1011.7hPa Calm     97% 0.00in /  0mm
03:55 56.1 °F /  13.4 °C 55.3 °F /  12.9 °C 29.88in /  1011.7hPa Calm   1.0mph /  1.6km/h 97% 0.00in /  0mm
04:00 56.3 °F /  13.5 °C 55.5 °F /  13.1 °C 29.88in /  1011.7hPa Calm   1.0mph /  1.6km/h 97% 0.00in /  0mm
04:05 56.4 °F /  13.6 °C 55.6 °F /  13.1 °C 29.88in /  1011.7hPa Calm     97% 0.00in /  0mm
04:10 56.4 °F /  13.6 °C 55.6 °F /  13.1 °C 29.88in /  1011.7hPa Calm     97% 0.00in /  0mm
04:20 56.5 °F /  13.6 °C 55.7 °F /  13.2 °C 29.89in /  1012.1hPa Calm     97% 0.00in /  0mm
04:25 56.5 °F /  13.6 °C 55.7 °F /  13.2 °C 29.89in /  1012.1hPa Calm     97% 0.00in /  0mm
04:30 56.5 °F /  13.6 °C 55.7 °F /  13.2 °C 29.88in /  1011.7hPa Calm     97% 0.01in /  0.3mm
04:35 56.4 °F /  13.6 °C 55.6 °F /  13.1 °C 29.89in /  1012.1hPa Calm     97% 0.01in /  0.3mm
04:40 56.3 °F /  13.5 °C 55.5 °F /  13.1 °C 29.89in /  1012.1hPa Calm     97% 0.01in /  0.3mm
04:45 56.3 °F /  13.5 °C 55.5 °F /  13.1 °C 29.89in /  1012.1hPa Calm     97% 0.01in /  0.3mm
04:50 56.2 °F /  13.4 °C 55.4 °F /  13 °C 29.89in /  1012.1hPa Calm     97% 0.01in /  0.3mm
04:55 56.1 °F /  13.4 °C 55.3 °F /  12.9 °C 29.89in /  1012.1hPa Calm     97% 0.01in /  0.3mm
05:00 55.9 °F /  13.3 °C 55.1 °F /  12.8 °C 29.90in /  1012.4hPa Calm     97% 0.01in /  0.3mm
05:05 55.8 °F /  13.2 °C 55.0 °F /  12.8 °C 29.89in /  1012.1hPa Calm     97% 0.01in /  0.3mm
05:10 55.7 °F /  13.2 °C 54.9 °F /  12.7 °C 29.89in /  1012.1hPa Calm     97% 0.01in /  0.3mm
05:15 55.7 °F /  13.2 °C 54.9 °F /  12.7 °C 29.90in /  1012.4hPa Calm     97% 0.01in /  0.3mm
05:20 55.5 °F /  13.1 °C 54.7 °F /  12.6 °C 29.90in /  1012.4hPa Calm     97% 0.01in /  0.3mm
05:25 55.6 °F /  13.1 °C 54.8 °F /  12.7 °C 29.90in /  1012.4hPa Calm     97% 0.01in /  0.3mm
05:30 55.7 °F /  13.2 °C 54.9 °F /  12.7 °C 29.90in /  1012.4hPa Calm     97% 0.01in /  0.3mm
05:35 55.9 °F /  13.3 °C 55.1 °F /  12.8 °C 29.91in /  1012.8hPa East 1.0mph /  1.6km/h 2.0mph /  3.2km/h 97% 0.01in /  0.3mm
05:40 55.9 °F /  13.3 °C 55.1 °F /  12.8 °C 29.91in /  1012.8hPa Calm   2.0mph /  3.2km/h 97% 0.01in /  0.3mm
05:45 56.0 °F /  13.3 °C 55.2 °F /  12.9 °C 29.91in /  1012.8hPa Calm   1.0mph /  1.6km/h 97% 0.01in /  0.3mm
05:50 56.4 °F /  13.6 °C 55.6 °F /  13.1 °C 29.91in /  1012.8hPa Calm     97% 0.01in /  0.3mm
05:55 56.4 °F /  13.6 °C 55.6 °F /  13.1 °C 29.91in /  1012.8hPa Calm     97% 0.01in /  0.3mm
06:00 56.4 °F /  13.6 °C 55.6 °F /  13.1 °C 29.91in /  1012.8hPa Calm     97% 0.01in /  0.3mm
06:05 56.3 °F /  13.5 °C 55.5 °F /  13.1 °C 29.91in /  1012.8hPa Calm     97% 0.01in /  0.3mm
06:10 56.4 °F /  13.6 °C 55.6 °F /  13.1 °C 29.91in /  1012.8hPa Calm     97% 0.01in /  0.3mm
06:15 56.6 °F /  13.7 °C 55.8 °F /  13.2 °C 29.91in /  1012.8hPa Calm     97% 0.01in /  0.3mm
06:20 56.8 °F /  13.8 °C 56.0 °F /  13.3 °C 29.91in /  1012.8hPa Calm     97% 0.01in /  0.3mm
06:25 57.0 °F /  13.9 °C 56.2 °F /  13.4 °C 29.91in /  1012.8hPa Calm     97% 0.01in /  0.3mm
06:30 57.2 °F /  14 °C 56.4 °F /  13.6 °C 29.91in /  1012.8hPa Calm     97% 0.01in /  0.3mm
06:35 57.3 °F /  14.1 °C 56.5 °F /  13.6 °C 29.92in /  1013.1hPa Calm     97% 0.01in /  0.3mm
06:40 57.4 °F /  14.1 °C 56.6 °F /  13.7 °C 29.91in /  1012.8hPa Calm     97% 0.01in /  0.3mm
06:45 57.6 °F /  14.2 °C 56.8 °F /  13.8 °C 29.92in /  1013.1hPa Calm     97% 0.01in /  0.3mm
06:50 57.7 °F /  14.3 °C 56.9 °F /  13.8 °C 29.92in /  1013.1hPa Calm     97% 0.01in /  0.3mm
06:55 57.8 °F /  14.3 °C 57.0 °F /  13.9 °C 29.92in /  1013.1hPa Calm     97% 0.01in /  0.3mm
07:00 57.8 °F /  14.3 °C 57.0 °F /  13.9 °C 29.92in /  1013.1hPa Calm     97% 0.01in /  0.3mm
07:05 57.9 °F /  14.4 °C 57.1 °F /  13.9 °C 29.92in /  1013.1hPa Calm     97% 0.01in /  0.3mm
07:10 58.1 °F /  14.5 °C 57.3 °F /  14.1 °C 29.92in /  1013.1hPa Calm     97% 0.01in /  0.3mm
07:15 58.2 °F /  14.6 °C 57.4 °F /  14.1 °C 29.92in /  1013.1hPa Calm     97% 0.01in /  0.3mm
07:20 58.3 °F /  14.6 °C 57.5 °F /  14.2 °C 29.92in /  1013.1hPa Calm     97% 0.01in /  0.3mm
07:25 58.2 °F /  14.6 °C 57.4 °F /  14.1 °C 29.92in /  1013.1hPa Calm   1.0mph /  1.6km/h 97% 0.01in /  0.3mm
07:30 58.2 °F /  14.6 °C 57.4 °F /  14.1 °C 29.93in /  1013.4hPa Calm   2.0mph /  3.2km/h 97% 0.01in /  0.3mm
07:35 58.3 °F /  14.6 °C 57.5 °F /  14.2 °C 29.93in /  1013.4hPa Calm   2.0mph /  3.2km/h 97% 0.01in /  0.3mm
07:40 58.0 °F /  14.4 °C 57.2 °F /  14 °C 29.93in /  1013.4hPa ENE 2.0mph /  3.2km/h 4.0mph /  6.4km/h 97% 0.01in /  0.3mm
07:45 57.6 °F /  14.2 °C 56.8 °F /  13.8 °C 29.93in /  1013.4hPa Calm   4.0mph /  6.4km/h 97% 0.01in /  0.3mm
07:50 57.4 °F /  14.1 °C 56.6 °F /  13.7 °C 29.93in /  1013.4hPa Calm   2.0mph /  3.2km/h 97% 0.01in /  0.3mm
07:55 57.3 °F /  14.1 °C 56.5 °F /  13.6 °C 29.93in /  1013.4hPa Calm   1.0mph /  1.6km/h 97% 0.01in /  0.3mm
08:00 57.3 °F /  14.1 °C 56.5 °F /  13.6 °C 29.93in /  1013.4hPa Calm     97% 0.01in /  0.3mm
08:05 57.6 °F /  14.2 °C 56.8 °F /  13.8 °C 29.93in /  1013.4hPa Calm     97% 0.01in /  0.3mm
08:10 58.0 °F /  14.4 °C 57.2 °F /  14 °C 29.93in /  1013.4hPa Calm     97% 0.01in /  0.3mm
08:15 58.2 °F /  14.6 °C 57.4 °F /  14.1 °C 29.93in /  1013.4hPa Calm     97% 0.01in /  0.3mm
08:20 58.4 °F /  14.7 °C 57.6 °F /  14.2 °C 29.93in /  1013.4hPa Calm     97% 0.01in /  0.3mm
08:25 58.8 °F /  14.9 °C 58.0 °F /  14.4 °C 29.93in /  1013.4hPa Calm     97% 0.01in /  0.3mm
08:30 59.0 °F /  15 °C 58.2 °F /  14.6 °C 29.93in /  1013.4hPa Calm     97% 0.01in /  0.3mm
08:40 59.0 °F /  15 °C 58.2 °F /  14.6 °C 29.93in /  1013.4hPa Calm   1.0mph /  1.6km/h 97% 0.01in /  0.3mm
08:45 59.0 °F /  15 °C 58.2 °F /  14.6 °C 29.93in /  1013.4hPa Calm   1.0mph /  1.6km/h 97% 0.01in /  0.3mm
08:50 58.9 °F /  14.9 °C 58.1 °F /  14.5 °C 29.93in /  1013.4hPa Calm     97% 0.01in /  0.3mm
08:55 59.0 °F /  15 °C 58.2 °F /  14.6 °C 29.93in /  1013.4hPa Calm     97% 0.01in /  0.3mm
09:00 59.1 °F /  15.1 °C 58.2 °F /  14.6 °C 29.93in /  1013.4hPa Calm     97% 0.01in /  0.3mm
09:05 59.5 °F /  15.3 °C 58.6 °F /  14.8 °C 29.93in /  1013.4hPa East 1.0mph /  1.6km/h 2.0mph /  3.2km/h 97% 0.01in /  0.3mm
09:10 59.6 °F /  15.3 °C 58.7 °F /  14.8 °C 29.93in /  1013.4hPa ENE 1.0mph /  1.6km/h 3.0mph /  4.8km/h 97% 0.01in /  0.3mm
09:15 59.8 °F /  15.4 °C 58.9 °F /  14.9 °C 29.92in /  1013.1hPa Calm   3.0mph /  4.8km/h 97% 0.01in /  0.3mm
09:20 60.3 °F /  15.7 °C 59.4 °F /  15.2 °C 29.92in /  1013.1hPa Calm   3.0mph /  4.8km/h 97% 0.01in /  0.3mm
09:25 61.2 °F /  16.2 °C 60.3 °F /  15.7 °C 29.93in /  1013.4hPa North 1.0mph /  1.6km/h 4.0mph /  6.4km/h 97% 0.01in /  0.3mm
09:30 61.8 °F /  16.6 °C 60.9 °F /  16.1 °C 29.93in /  1013.4hPa North 1.0mph /  1.6km/h 4.0mph /  6.4km/h 97% 0.01in /  0.3mm
09:40 61.6 °F /  16.4 °C 61.0 °F /  16.1 °C 29.93in /  1013.4hPa NNE 1.0mph /  1.6km/h 5.0mph /  8km/h 98% 0.01in /  0.3mm
09:45 61.7 °F /  16.5 °C 60.8 °F /  16 °C 29.93in /  1013.4hPa Calm   4.0mph /  6.4km/h 97% 0.01in /  0.3mm
09:50 61.7 °F /  16.5 °C 60.8 °F /  16 °C 29.93in /  1013.4hPa North 1.0mph /  1.6km/h 5.0mph /  8km/h 97% 0.01in /  0.3mm
09:55 61.6 °F /  16.4 °C 60.7 °F /  15.9 °C 29.93in /  1013.4hPa NNW 1.0mph /  1.6km/h 5.0mph /  8km/h 97% 0.01in /  0.3mm
10:00 61.3 °F /  16.3 °C 60.4 °F /  15.8 °C 29.93in /  1013.4hPa Calm   5.0mph /  8km/h 97% 0.01in /  0.3mm
10:05 61.4 °F /  16.3 °C 60.5 °F /  15.8 °C 29.94in /  1013.8hPa Calm   5.0mph /  8km/h 97% 0.01in /  0.3mm
10:10 61.6 °F /  16.4 °C 60.7 °F /  15.9 °C 29.94in /  1013.8hPa Calm   3.0mph /  4.8km/h 97% 0.01in /  0.3mm
10:15 61.6 °F /  16.4 °C 60.7 °F /  15.9 °C 29.94in /  1013.8hPa NW 3.0mph /  4.8km/h 6.0mph /  9.7km/h 97% 0.01in /  0.3mm
10:20 61.6 °F /  16.4 °C 60.7 °F /  15.9 °C 29.94in /  1013.8hPa NW 2.0mph /  3.2km/h 6.0mph /  9.7km/h 97% 0.01in /  0.3mm
10:25 61.8 °F /  16.6 °C 60.6 °F /  15.9 °C 29.94in /  1013.8hPa Calm   5.0mph /  8km/h 96% 0.01in /  0.3mm
10:30 62.1 °F /  16.7 °C 60.9 °F /  16.1 °C 29.94in /  1013.8hPa Calm   1.0mph /  1.6km/h 96% 0.01in /  0.3mm
10:35 62.0 °F /  16.7 °C 60.8 °F /  16 °C 29.95in /  1014.1hPa NW 2.0mph /  3.2km/h 4.0mph /  6.4km/h 96% 0.01in /  0.3mm
10:40 61.8 °F /  16.6 °C 60.6 °F /  15.9 °C 29.95in /  1014.1hPa NNW 1.0mph /  1.6km/h 4.0mph /  6.4km/h 96% 0.01in /  0.3mm
10:45 61.4 °F /  16.3 °C 60.0 °F /  15.6 °C 29.95in /  1014.1hPa NNW 1.0mph /  1.6km/h 4.0mph /  6.4km/h 95% 0.01in /  0.3mm
10:50 61.1 °F /  16.2 °C 59.7 °F /  15.4 °C 29.96in /  1014.4hPa Calm   5.0mph /  8km/h 95% 0.01in /  0.3mm
10:55 60.9 °F /  16.1 °C 59.5 °F /  15.3 °C 29.96in /  1014.4hPa Calm   5.0mph /  8km/h 95% 0.01in /  0.3mm
11:00 60.9 °F /  16.1 °C 59.8 °F /  15.4 °C 29.96in /  1014.4hPa Calm   3.0mph /  4.8km/h 96% 0.01in /  0.3mm
11:05 60.7 °F /  15.9 °C 59.3 °F /  15.2 °C 29.96in /  1014.4hPa Calm   4.0mph /  6.4km/h 95% 0.01in /  0.3mm
11:10 60.7 °F /  15.9 °C 59.6 °F /  15.3 °C 29.96in /  1014.4hPa Calm   4.0mph /  6.4km/h 96% 0.01in /  0.3mm
11:15 61.0 °F /  16.1 °C 59.9 °F /  15.5 °C 29.96in /  1014.4hPa Calm   4.0mph /  6.4km/h 96% 0.01in /  0.3mm
11:20 61.5 °F /  16.4 °C 60.3 °F /  15.7 °C 29.96in /  1014.4hPa Calm   4.0mph /  6.4km/h 96% 0.01in /  0.3mm
11:25 61.9 °F /  16.6 °C 60.7 °F /  15.9 °C 29.96in /  1014.4hPa Calm   4.0mph /  6.4km/h 96% 0.01in /  0.3mm
11:30 62.2 °F /  16.8 °C 61.0 °F /  16.1 °C 29.96in /  1014.4hPa NNW 1.0mph /  1.6km/h 4.0mph /  6.4km/h 96% 0.01in /  0.3mm
11:35 62.6 °F /  17 °C 61.4 °F /  16.3 °C 29.95in /  1014.1hPa North 1.0mph /  1.6km/h 4.0mph /  6.4km/h 96% 0.01in /  0.3mm
11:40 63.4 °F /  17.4 °C 61.9 °F /  16.6 °C 29.96in /  1014.4hPa North 1.0mph /  1.6km/h 5.0mph /  8km/h 95% 0.01in /  0.3mm
11:45 64.3 °F /  17.9 °C 62.8 °F /  17.1 °C 29.96in /  1014.4hPa North 1.0mph /  1.6km/h 5.0mph /  8km/h 95% 0.01in /  0.3mm
11:50 64.9 °F /  18.3 °C 62.5 °F /  16.9 °C 29.96in /  1014.4hPa NW 3.0mph /  4.8km/h 8.0mph /  12.9km/h 92% 0.01in /  0.3mm
11:55 65.0 °F /  18.3 °C 62.0 °F /  16.7 °C 29.96in /  1014.4hPa North 2.0mph /  3.2km/h 8.0mph /  12.9km/h 90% 0.01in /  0.3mm
12:00 65.5 °F /  18.6 °C 62.5 °F /  16.9 °C 29.96in /  1014.4hPa Calm   6.0mph /  9.7km/h 90% 0.01in /  0.3mm
12:05 65.3 °F /  18.5 °C 61.3 °F /  16.3 °C 29.96in /  1014.4hPa NNE 3.0mph /  4.8km/h 5.0mph /  8km/h 87% 0.01in /  0.3mm
12:10 65.0 °F /  18.3 °C 61.4 °F /  16.3 °C 29.96in /  1014.4hPa NNW 1.0mph /  1.6km/h 6.0mph /  9.7km/h 88% 0.01in /  0.3mm
12:15 64.7 °F /  18.2 °C 61.4 °F /  16.3 °C 29.96in /  1014.4hPa Calm   6.0mph /  9.7km/h 89% 0.01in /  0.3mm
12:20 64.9 °F /  18.3 °C 61.9 °F /  16.6 °C 29.96in /  1014.4hPa Calm   5.0mph /  8km/h 90% 0.01in /  0.3mm
12:25 65.3 °F /  18.5 °C 61.7 °F /  16.5 °C 29.96in /  1014.4hPa NNW 1.0mph /  1.6km/h 8.0mph /  12.9km/h 88% 0.01in /  0.3mm
12:30 65.8 °F /  18.8 °C 62.1 °F /  16.7 °C 29.96in /  1014.4hPa NNW 3.0mph /  4.8km/h 9.0mph /  14.5km/h 88% 0.01in /  0.3mm
12:35 66.2 °F /  19 °C 62.5 °F /  16.9 °C 29.96in /  1014.4hPa North 1.0mph /  1.6km/h 9.0mph /  14.5km/h 88% 0.01in /  0.3mm
12:40 66.6 °F /  19.2 °C 62.9 °F /  17.2 °C 29.96in /  1014.4hPa Calm   7.0mph /  11.3km/h 88% 0.01in /  0.3mm
12:45 66.6 °F /  19.2 °C 62.9 °F /  17.2 °C 29.96in /  1014.4hPa NNW 3.0mph /  4.8km/h 8.0mph /  12.9km/h 88% 0.01in /  0.3mm
12:50 66.3 °F /  19.1 °C 62.6 °F /  17 °C 29.96in /  1014.4hPa Calm   8.0mph /  12.9km/h 88% 0.01in /  0.3mm
12:55 66.1 °F /  18.9 °C 62.4 °F /  16.9 °C 29.96in /  1014.4hPa NW 2.0mph /  3.2km/h 5.0mph /  8km/h 88% 0.01in /  0.3mm
13:00 66.2 °F /  19 °C 62.5 °F /  16.9 °C 29.96in /  1014.4hPa NW 1.0mph /  1.6km/h 8.0mph /  12.9km/h 88% 0.01in /  0.3mm
13:05 66.1 °F /  18.9 °C 62.8 °F /  17.1 °C 29.96in /  1014.4hPa NW 3.0mph /  4.8km/h 10.0mph /  16.1km/h 89% 0.01in /  0.3mm
13:10 66.1 °F /  18.9 °C 62.4 °F /  16.9 °C 29.96in /  1014.4hPa NW 1.0mph /  1.6km/h 10.0mph /  16.1km/h 88% 0.01in /  0.3mm
13:20 67.3 °F /  19.6 °C 63.3 °F /  17.4 °C 29.96in /  1014.4hPa NNW 1.0mph /  1.6km/h 6.0mph /  9.7km/h 87% 0.01in /  0.3mm
13:25 67.8 °F /  19.9 °C 63.1 °F /  17.3 °C 29.96in /  1014.4hPa North 3.0mph /  4.8km/h 6.0mph /  9.7km/h 85% 0.01in /  0.3mm
13:30 68.4 °F /  20.2 °C 64.4 °F /  18 °C 29.96in /  1014.4hPa NNE 2.0mph /  3.2km/h 8.0mph /  12.9km/h 87% 0.01in /  0.3mm
13:35 69.0 °F /  20.6 °C 64.0 °F /  17.8 °C 29.96in /  1014.4hPa North 1.0mph /  1.6km/h 8.0mph /  12.9km/h 84% 0.01in /  0.3mm
13:40 69.2 °F /  20.7 °C 63.5 °F /  17.5 °C 29.95in /  1014.1hPa NNE 3.0mph /  4.8km/h 9.0mph /  14.5km/h 82% 0.01in /  0.3mm
13:45 69.0 °F /  20.6 °C 63.6 °F /  17.6 °C 29.95in /  1014.1hPa NNW 2.0mph /  3.2km/h 9.0mph /  14.5km/h 83% 0.01in /  0.3mm
13:50 68.5 °F /  20.3 °C 63.8 °F /  17.7 °C 29.95in /  1014.1hPa NW 3.0mph /  4.8km/h 9.0mph /  14.5km/h 85% 0.01in /  0.3mm
13:55 69.0 °F /  20.6 °C 63.6 °F /  17.6 °C 29.95in /  1014.1hPa NNW 2.0mph /  3.2km/h 9.0mph /  14.5km/h 83% 0.01in /  0.3mm
14:00 68.6 °F /  20.3 °C 62.9 °F /  17.2 °C 29.95in /  1014.1hPa North 2.0mph /  3.2km/h 8.0mph /  12.9km/h 82% 0.01in /  0.3mm
14:05 68.2 °F /  20.1 °C 62.8 °F /  17.1 °C 29.96in /  1014.4hPa NW 3.0mph /  4.8km/h 6.0mph /  9.7km/h 83% 0.01in /  0.3mm
14:15 68.5 °F /  20.3 °C 63.5 °F /  17.5 °C 29.96in /  1014.4hPa NW 4.0mph /  6.4km/h 8.0mph /  12.9km/h 84% 0.01in /  0.3mm
14:20 68.4 °F /  20.2 °C 62.3 °F /  16.8 °C 29.96in /  1014.4hPa Calm   8.0mph /  12.9km/h 81% 0.01in /  0.3mm
14:25 68.3 °F /  20.2 °C 63.3 °F /  17.4 °C 29.96in /  1014.4hPa NW 1.0mph /  1.6km/h 6.0mph /  9.7km/h 84% 0.01in /  0.3mm
14:30 69.0 °F /  20.6 °C 64.0 °F /  17.8 °C 29.96in /  1014.4hPa NW 1.0mph /  1.6km/h 6.0mph /  9.7km/h 84% 0.01in /  0.3mm
14:35 69.5 °F /  20.8 °C 63.8 °F /  17.7 °C 29.96in /  1014.4hPa NNW 2.0mph /  3.2km/h 6.0mph /  9.7km/h 82% 0.01in /  0.3mm
14:40 70.8 °F /  21.6 °C 65.0 °F /  18.3 °C 29.95in /  1014.1hPa NNE 2.0mph /  3.2km/h 8.0mph /  12.9km/h 82% 0.01in /  0.3mm
14:45 71.2 °F /  21.8 °C 64.4 °F /  18 °C 29.95in /  1014.1hPa NW 4.0mph /  6.4km/h 10.0mph /  16.1km/h 79% 0.01in /  0.3mm
14:50 70.8 °F /  21.6 °C 64.3 °F /  17.9 °C 29.95in /  1014.1hPa NNW 1.0mph /  1.6km/h 10.0mph /  16.1km/h 80% 0.01in /  0.3mm
14:55 70.8 °F /  21.6 °C 63.2 °F /  17.3 °C 29.96in /  1014.4hPa NW 4.0mph /  6.4km/h 10.0mph /  16.1km/h 77% 0.01in /  0.3mm
15:00 70.6 °F /  21.4 °C 63.8 °F /  17.7 °C 29.95in /  1014.1hPa NNW 2.0mph /  3.2km/h 8.0mph /  12.9km/h 79% 0.01in /  0.3mm
15:05 69.9 °F /  21.1 °C 62.7 °F /  17.1 °C 29.96in /  1014.4hPa NW 6.0mph /  9.7km/h 12.0mph /  19.3km/h 78% 0.01in /  0.3mm
15:10 70.4 °F /  21.3 °C 64.3 °F /  17.9 °C 29.96in /  1014.4hPa North 2.0mph /  3.2km/h 12.0mph /  19.3km/h 81% 0.01in /  0.3mm
15:15 70.9 °F /  21.6 °C 64.1 °F /  17.8 °C 29.96in /  1014.4hPa NW 2.0mph /  3.2km/h 9.0mph /  14.5km/h 79% 0.01in /  0.3mm
15:20 71.0 °F /  21.7 °C 63.4 °F /  17.4 °C 29.96in /  1014.4hPa North 2.0mph /  3.2km/h 9.0mph /  14.5km/h 77% 0.01in /  0.3mm
15:25 70.7 °F /  21.5 °C 64.2 °F /  17.9 °C 29.95in /  1014.1hPa Calm   8.0mph /  12.9km/h 80% 0.01in /  0.3mm
15:30 70.9 °F /  21.6 °C 63.7 °F /  17.6 °C 29.95in /  1014.1hPa North 2.0mph /  3.2km/h 8.0mph /  12.9km/h 78% 0.01in /  0.3mm
15:35 71.1 °F /  21.7 °C 63.5 °F /  17.5 °C 29.95in /  1014.1hPa Calm   5.0mph /  8km/h 77% 0.01in /  0.3mm
15:40 71.6 °F /  22 °C 64.4 °F /  18 °C 29.96in /  1014.4hPa NW 2.0mph /  3.2km/h 8.0mph /  12.9km/h 78% 0.01in /  0.3mm
15:45 72.2 °F /  22.3 °C 64.2 °F /  17.9 °C 29.96in /  1014.4hPa NNW 1.0mph /  1.6km/h 8.0mph /  12.9km/h 76% 0.01in /  0.3mm
15:55 73.0 °F /  22.8 °C 63.8 °F /  17.7 °C 29.95in /  1014.1hPa NNE 1.0mph /  1.6km/h 9.0mph /  14.5km/h 73% 0.01in /  0.3mm
16:00 73.1 °F /  22.8 °C 64.3 °F /  17.9 °C 29.95in /  1014.1hPa Calm   9.0mph /  14.5km/h 74% 0.01in /  0.3mm
16:05 72.3 °F /  22.4 °C 63.2 °F /  17.3 °C 29.95in /  1014.1hPa NNE 1.0mph /  1.6km/h 7.0mph /  11.3km/h 73% 0.01in /  0.3mm
16:10 72.1 °F /  22.3 °C 63.0 °F /  17.2 °C 29.95in /  1014.1hPa NE 2.0mph /  3.2km/h 8.0mph /  12.9km/h 73% 0.01in /  0.3mm
16:15 71.5 °F /  21.9 °C 62.0 °F /  16.7 °C 29.95in /  1014.1hPa NE 4.0mph /  6.4km/h 10.0mph /  16.1km/h 72% 0.01in /  0.3mm
16:20 71.1 °F /  21.7 °C 62.4 °F /  16.9 °C 29.95in /  1014.1hPa NNE 2.0mph /  3.2km/h 10.0mph /  16.1km/h 74% 0.01in /  0.3mm
16:25 70.5 °F /  21.4 °C 62.2 °F /  16.8 °C 29.95in /  1014.1hPa NE 1.0mph /  1.6km/h 9.0mph /  14.5km/h 75% 0.01in /  0.3mm
16:30 70.0 °F /  21.1 °C 62.1 °F /  16.7 °C 29.95in /  1014.1hPa NNE 2.0mph /  3.2km/h 9.0mph /  14.5km/h 76% 0.01in /  0.3mm
16:35 69.8 °F /  21 °C 63.7 °F /  17.6 °C 29.95in /  1014.1hPa North 1.0mph /  1.6km/h 7.0mph /  11.3km/h 81% 0.01in /  0.3mm
16:40 68.8 °F /  20.4 °C 61.7 °F /  16.5 °C 29.95in /  1014.1hPa NNE 1.0mph /  1.6km/h 9.0mph /  14.5km/h 78% 0.01in /  0.3mm
16:45 68.4 °F /  20.2 °C 61.6 °F /  16.4 °C 29.95in /  1014.1hPa ENE 2.0mph /  3.2km/h 9.0mph /  14.5km/h 79% 0.01in /  0.3mm
16:50 68.0 °F /  20 °C 61.3 °F /  16.3 °C 29.95in /  1014.1hPa East 2.0mph /  3.2km/h 8.0mph /  12.9km/h 79% 0.01in /  0.3mm
16:55 67.2 °F /  19.6 °C 61.2 °F /  16.2 °C 29.95in /  1014.1hPa East 1.0mph /  1.6km/h 7.0mph /  11.3km/h 81% 0.01in /  0.3mm
17:00 67.1 °F /  19.5 °C 61.1 °F /  16.2 °C 29.95in /  1014.1hPa Calm   7.0mph /  11.3km/h 81% 0.01in /  0.3mm
17:05 67.1 °F /  19.5 °C 60.4 °F /  15.8 °C 29.95in /  1014.1hPa Calm   5.0mph /  8km/h 79% 0.01in /  0.3mm
17:10 67.7 °F /  19.8 °C 61.0 °F /  16.1 °C 29.95in /  1014.1hPa Calm   5.0mph /  8km/h 79% 0.01in /  0.3mm
17:15 67.9 °F /  19.9 °C 60.1 °F /  15.6 °C 29.95in /  1014.1hPa Calm   3.0mph /  4.8km/h 76% 0.01in /  0.3mm
17:20 67.9 °F /  19.9 °C 59.7 °F /  15.4 °C 29.95in /  1014.1hPa Calm   3.0mph /  4.8km/h 75% 0.01in /  0.3mm
17:25 68.3 °F /  20.2 °C 60.8 °F /  16 °C 29.95in /  1014.1hPa Calm   3.0mph /  4.8km/h 77% 0.01in /  0.3mm
17:30 68.8 °F /  20.4 °C 62.0 °F /  16.7 °C 29.95in /  1014.1hPa Calm   3.0mph /  4.8km/h 79% 0.01in /  0.3mm
17:35 69.4 °F /  20.8 °C 61.5 °F /  16.4 °C 29.95in /  1014.1hPa Calm   3.0mph /  4.8km/h 76% 0.01in /  0.3mm
17:40 69.7 °F /  20.9 °C 60.7 °F /  15.9 °C 29.95in /  1014.1hPa Calm   3.0mph /  4.8km/h 73% 0.01in /  0.3mm
17:45 70.5 °F /  21.4 °C 61.4 °F /  16.3 °C 29.95in /  1014.1hPa Calm   3.0mph /  4.8km/h 73% 0.01in /  0.3mm
17:50 71.3 °F /  21.8 °C 61.8 °F /  16.6 °C 29.95in /  1014.1hPa Calm   2.0mph /  3.2km/h 72% 0.01in /  0.3mm
17:55 71.4 °F /  21.9 °C 61.9 °F /  16.6 °C 29.95in /  1014.1hPa Calm   3.0mph /  4.8km/h 72% 0.01in /  0.3mm
18:00 71.6 °F /  22 °C 62.1 °F /  16.7 °C 29.95in /  1014.1hPa Calm   3.0mph /  4.8km/h 72% 0.01in /  0.3mm
18:10 71.6 °F /  22 °C 62.5 °F /  16.9 °C 29.94in /  1013.8hPa Calm   4.0mph /  6.4km/h 73% 0.01in /  0.3mm
18:15 71.9 °F /  22.2 °C 62.4 °F /  16.9 °C 29.95in /  1014.1hPa Calm   2.0mph /  3.2km/h 72% 0.01in /  0.3mm
18:20 72.1 °F /  22.3 °C 63.0 °F /  17.2 °C 29.95in /  1014.1hPa Calm   1.0mph /  1.6km/h 73% 0.01in /  0.3mm
18:25 71.8 °F /  22.1 °C 62.7 °F /  17.1 °C 29.95in /  1014.1hPa Calm   5.0mph /  8km/h 73% 0.01in /  0.3mm
18:30 71.5 °F /  21.9 °C 62.4 °F /  16.9 °C 29.95in /  1014.1hPa Calm   5.0mph /  8km/h 73% 0.01in /  0.3mm
18:35 71.3 °F /  21.8 °C 62.2 °F /  16.8 °C 29.95in /  1014.1hPa Calm   1.0mph /  1.6km/h 73% 0.01in /  0.3mm
18:40 71.1 °F /  21.7 °C 62.4 °F /  16.9 °C 29.95in /  1014.1hPa Calm   3.0mph /  4.8km/h 74% 0.01in /  0.3mm
18:45 70.9 °F /  21.6 °C 62.6 °F /  17 °C 29.95in /  1014.1hPa Calm   3.0mph /  4.8km/h 75% 0.01in /  0.3mm
18:50 70.9 °F /  21.6 °C 62.2 °F /  16.8 °C 29.95in /  1014.1hPa Calm   3.0mph /  4.8km/h 74% 0.01in /  0.3mm
18:55 71.0 °F /  21.7 °C 63.1 °F /  17.3 °C 29.95in /  1014.1hPa Calm   3.0mph /  4.8km/h 76% 0.01in /  0.3mm
19:00 71.1 °F /  21.7 °C 63.9 °F /  17.7 °C 29.95in /  1014.1hPa Calm   1.0mph /  1.6km/h 78% 0.01in /  0.3mm
19:05 70.1 °F /  21.2 °C 62.9 °F /  17.2 °C 29.95in /  1014.1hPa Calm   1.0mph /  1.6km/h 78% 0.01in /  0.3mm
19:10 69.8 °F /  21 °C 62.3 °F /  16.8 °C 29.96in /  1014.4hPa Calm   1.0mph /  1.6km/h 77% 0.01in /  0.3mm
19:15 69.3 °F /  20.7 °C 62.5 °F /  16.9 °C 29.96in /  1014.4hPa Calm   1.0mph /  1.6km/h 79% 0.01in /  0.3mm
19:20 68.6 °F /  20.3 °C 61.8 °F /  16.6 °C 29.95in /  1014.1hPa Calm   1.0mph /  1.6km/h 79% 0.01in /  0.3mm
19:25 67.9 °F /  19.9 °C 61.9 °F /  16.6 °C 29.95in /  1014.1hPa Calm   1.0mph /  1.6km/h 81% 0.01in /  0.3mm
19:35 66.4 °F /  19.1 °C 61.8 °F /  16.6 °C 29.96in /  1014.4hPa Calm   1.0mph /  1.6km/h 85% 0.01in /  0.3mm
19:40 65.7 °F /  18.7 °C 61.4 °F /  16.3 °C 29.96in /  1014.4hPa Calm     86% 0.01in /  0.3mm
19:45 65.1 °F /  18.4 °C 61.1 °F /  16.2 °C 29.96in /  1014.4hPa Calm     87% 0.01in /  0.3mm
19:50 64.5 °F /  18.1 °C 60.9 °F /  16.1 °C 29.96in /  1014.4hPa Calm     88% 0.01in /  0.3mm
19:55 64.0 °F /  17.8 °C 60.4 °F /  15.8 °C 29.96in /  1014.4hPa Calm     88% 0.01in /  0.3mm
20:05 63.2 °F /  17.3 °C 60.2 °F /  15.7 °C 29.96in /  1014.4hPa Calm     90% 0.01in /  0.3mm
20:10 62.7 °F /  17.1 °C 59.7 °F /  15.4 °C 29.96in /  1014.4hPa Calm     90% 0.01in /  0.3mm
20:15 62.4 °F /  16.9 °C 59.7 °F /  15.4 °C 29.97in /  1014.8hPa Calm     91% 0.01in /  0.3mm
20:20 62.0 °F /  16.7 °C 59.3 °F /  15.2 °C 29.97in /  1014.8hPa Calm     91% 0.01in /  0.3mm
20:25 61.5 °F /  16.4 °C 58.9 °F /  14.9 °C 29.97in /  1014.8hPa Calm     91% 0.01in /  0.3mm
20:30 61.2 °F /  16.2 °C 58.9 °F /  14.9 °C 29.96in /  1014.4hPa Calm     92% 0.01in /  0.3mm
20:35 61.2 °F /  16.2 °C 58.9 °F /  14.9 °C 29.96in /  1014.4hPa Calm     92% 0.01in /  0.3mm
20:40 60.9 °F /  16.1 °C 58.6 °F /  14.8 °C 29.97in /  1014.8hPa Calm     92% 0.01in /  0.3mm
20:45 60.4 °F /  15.8 °C 58.1 °F /  14.5 °C 29.97in /  1014.8hPa Calm     92% 0.01in /  0.3mm
20:50 60.3 °F /  15.7 °C 58.3 °F /  14.6 °C 29.96in /  1014.4hPa Calm     93% 0.01in /  0.3mm
20:55 60.1 °F /  15.6 °C 58.1 °F /  14.5 °C 29.96in /  1014.4hPa Calm     93% 0.01in /  0.3mm
21:00 59.9 °F /  15.5 °C 57.9 °F /  14.4 °C 29.97in /  1014.8hPa Calm     93% 0.01in /  0.3mm
21:10 59.1 °F /  15.1 °C 57.1 °F /  13.9 °C 29.97in /  1014.8hPa Calm     93% 0.01in /  0.3mm
21:15 59.0 °F /  15 °C 57.0 °F /  13.9 °C 29.97in /  1014.8hPa Calm     93% 0.01in /  0.3mm
21:20 59.2 °F /  15.1 °C 57.5 °F /  14.2 °C 29.97in /  1014.8hPa Calm     94% 0.01in /  0.3mm
21:25 59.2 °F /  15.1 °C 57.5 °F /  14.2 °C 29.97in /  1014.8hPa Calm     94% 0.01in /  0.3mm
21:30 59.6 °F /  15.3 °C 58.2 °F /  14.6 °C 29.97in /  1014.8hPa Calm     95% 0.01in /  0.3mm
21:40 59.0 °F /  15 °C 57.6 °F /  14.2 °C 29.97in /  1014.8hPa Calm     95% 0.01in /  0.3mm
21:45 58.6 °F /  14.8 °C 56.9 °F /  13.8 °C 29.97in /  1014.8hPa Calm     94% 0.01in /  0.3mm
21:50 59.0 °F /  15 °C 57.6 °F /  14.2 °C 29.97in /  1014.8hPa Calm     95% 0.01in /  0.3mm
21:55 58.9 °F /  14.9 °C 57.5 °F /  14.2 °C 29.97in /  1014.8hPa Calm     95% 0.01in /  0.3mm
22:00 58.6 °F /  14.8 °C 57.2 °F /  14 °C 29.97in /  1014.8hPa Calm     95% 0.01in /  0.3mm
22:05 58.6 °F /  14.8 °C 57.2 °F /  14 °C 29.97in /  1014.8hPa Calm     95% 0.01in /  0.3mm
22:10 59.0 °F /  15 °C 57.6 °F /  14.2 °C 29.97in /  1014.8hPa Calm     95% 0.01in /  0.3mm
22:15 59.3 °F /  15.2 °C 58.2 °F /  14.6 °C 29.97in /  1014.8hPa Calm     96% 0.01in /  0.3mm
22:20 59.2 °F /  15.1 °C 58.1 °F /  14.5 °C 29.97in /  1014.8hPa Calm     96% 0.01in /  0.3mm
22:25 58.4 °F /  14.7 °C 57.0 °F /  13.9 °C 29.97in /  1014.8hPa Calm     95% 0.01in /  0.3mm
22:30 57.5 °F /  14.2 °C 56.1 °F /  13.4 °C 29.97in /  1014.8hPa Calm     95% 0.01in /  0.3mm
22:35 57.4 °F /  14.1 °C 56.0 °F /  13.3 °C 29.97in /  1014.8hPa Calm     95% 0.01in /  0.3mm
22:40 57.1 °F /  13.9 °C 55.7 °F /  13.2 °C 29.97in /  1014.8hPa Calm     95% 0.01in /  0.3mm
22:45 57.1 °F /  13.9 °C 56.0 °F /  13.3 °C 29.97in /  1014.8hPa Calm     96% 0.01in /  0.3mm
22:50 57.4 °F /  14.1 °C 56.3 °F /  13.5 °C 29.97in /  1014.8hPa Calm     96% 0.01in /  0.3mm
22:55 57.9 °F /  14.4 °C 56.8 °F /  13.8 °C 29.97in /  1014.8hPa Calm     96% 0.01in /  0.3mm
23:00 58.2 °F /  14.6 °C 57.1 °F /  13.9 °C 29.97in /  1014.8hPa Calm     96% 0.01in /  0.3mm
23:05 57.9 °F /  14.4 °C 56.8 °F /  13.8 °C 29.97in /  1014.8hPa Calm     96% 0.01in /  0.3mm
23:10 57.3 °F /  14.1 °C 56.2 °F /  13.4 °C 29.97in /  1014.8hPa Calm     96% 0.01in /  0.3mm
23:15 57.5 °F /  14.2 °C 56.4 °F /  13.6 °C 29.97in /  1014.8hPa Calm     96% 0.01in /  0.3mm
23:20 57.7 °F /  14.3 °C 56.6 °F /  13.7 °C 29.97in /  1014.8hPa Calm     96% 0.01in /  0.3mm
23:25 57.4 °F /  14.1 °C 56.3 °F /  13.5 °C 29.97in /  1014.8hPa Calm     96% 0.01in /  0.3mm
23:30 57.1 °F /  13.9 °C 56.0 °F /  13.3 °C 29.97in /  1014.8hPa Calm     96% 0.01in /  0.3mm
23:35 57.8 °F /  14.3 °C 56.7 °F /  13.7 °C 29.97in /  1014.8hPa Calm     96% 0.01in /  0.3mm
23:40 57.4 °F /  14.1 °C 56.3 °F /  13.5 °C 29.97in /  1014.8hPa Calm     96% 0.01in /  0.3mm
23:45 57.1 °F /  13.9 °C 56.0 °F /  13.3 °C 29.97in /  1014.8hPa Calm     96% 0.01in /  0.3mm
23:50 56.8 °F /  13.8 °C 55.7 °F /  13.2 °C 29.97in /  1014.8hPa Calm     96% 0.01in /  0.3mm
23:55 56.7 °F /  13.7 °C 55.6 °F /  13.1 °C 29.97in /  1014.8hPa Calm     96% 0.01in /  0.3mm
Westford Weather
Compliments of Weather Underground

 
 
Current Radar Loop:

Copyright © WestfordWeather.net 2007-2014. All rights reserved.